MI71 weather

Silver Lake Airport
Mears, Michigan, United States

Public forecast

Using degrees Fahrenheit for public forecast. Weather courtesy of forecast.io.

METAR (pilot weather report)

Closest report is Mason County Airport, 19.2 nm (35.5 km) N. Retrieved 2019/09/23 14:35 UTC (0 seconds ago):

KLDM 231435Z AUTO 30008KT 10SM OVC013 17/14 A2991 RMK AO2 T01660135

TAF (pilot weather forecast)

Closest forecast is Muskegon County Airport, 30.0 nm (55.6 km) SSE. Retrieved 2019/09/23 12:24 UTC (2 hours ago):

TAF KMKG 231122Z 2312/2412 30010G20KT P6SM SCT014 SCT045 BKN060 FM231400 30014G24KT P6SM BKN025 FM231900 28015G25KT P6SM BKN035 FM240000 27005KT P6SM SKC